Flight Track Log - Related Links

Times and Time Zones

All times are in EDT time to prevent confusion due to time zone crossing. See the N717AN flight status page for this flight to view local times or setup timezone preferences in your user account.

Time Position Orientation Groundspeed Altitude Reporting Facility
EDT Latitude Longitude Course Direction KTS MPH feet Rate Location/Type
Sun 05:05:17 AM 51.4770 -0.4880 269° West 197 227 200  Level FlightAware ADS-B
Sun 05:05:42 AM 51.4780 -0.5190 273° West 195 224 1,300 2,647 Climbing FlightAware ADS-B
Sun 05:05:51 AM 51.4768 -0.5394 265° West 199 229 1,700 2,143 Climbing FlightAware ADS-B
Sun 05:05:56 AM 51.4756 -0.5465 255° West 205 236 1,800 900 Climbing FlightAware ADS-B
Sun 05:06:11 AM 51.4706 -0.5709 252° West 227 261 2,000 923 Climbing FlightAware ADS-B
Sun 05:06:22 AM 51.4674 -0.5880 253° West 237 273 2,200 1,636 Climbing FlightAware ADS-B
Sun 05:06:33 AM 51.4639 -0.6089 255° West 247 284 2,600 2,222 Climbing FlightAware ADS-B
Sun 05:06:49 AM 51.4597 -0.6368 256° West 252 290 3,200 2,516 Climbing FlightAware ADS-B
Sun 05:07:04 AM 51.4559 -0.6633 257° West 253 291 3,900 2,842 Climbing FlightAware ADS-B
Sun 05:07:08 AM 51.4549 -0.6721 260° West 253 291 4,100 3,000 Climbing FlightAware ADS-B
Sun 05:07:14 AM 51.4538 -0.6836 261° West 255 293 4,400 2,348 Climbing FlightAware ADS-B
Sun 05:07:31 AM 51.4511 -0.7153 262° West 260 299 5,000 2,438 Climbing FlightAware ADS-B
Sun 05:07:46 AM 51.4489 -0.7444 263° West 263 303 5,700 2,600 Climbing FlightAware ADS-B
Sun 05:08:01 AM 51.4466 -0.7735 263° West 265 305 6,300 2,364 Climbing FlightAware ADS-B
Sun 05:08:19 AM 51.4438 -0.8081 263° West 267 307 7,000 2,471 Climbing FlightAware ADS-B
Sun 05:08:35 AM 51.4417 -0.8398 264° West 268 308 7,700 2,800 Climbing FlightAware ADS-B
Sun 05:08:49 AM 51.4398 -0.8676 264° West 266 306 8,400 2,800 Climbing FlightAware ADS-B
Sun 05:09:05 AM 51.4374 -0.8974 263° West 265 305 9,100 2,323 Climbing FlightAware ADS-B
Sun 05:09:20 AM 51.4351 -0.9279 263° West 269 310 9,600 -727 Climbing FlightAware ADS-B
Sun 05:09:38 AM 51.4325 -0.9643 263° West 288 331 8,700 1,742 Descending FlightAware UK
Sun 05:09:51 AM 51.4306 -0.9910 263° West 287 330 10,500 4,750 Climbing FlightAware ADS-B
Sun 05:10:02 AM 51.4300 -1.0134 268° West 299 344 10,600 667 Climbing FlightAware ADS-B
Sun 05:10:09 AM 51.4314 -1.0298 278° West 307 353 10,700 1,000 Climbing FlightAware ADS-B
Sun 05:10:20 AM 51.4374 -1.0539 292° West 320 368 10,900 -1,862 Climbing FlightAware ADS-B
Sun 05:10:38 AM 51.4514 -1.0933 292° West 348 400 9,800 1,200 Descending FlightAware UK
Sun 05:10:50 AM 51.4609 -1.1196 292° West 352 405 11,500 1,333 Climbing FlightAware ADS-B
Sun 05:11:14 AM 51.4812 -1.1770 292° West 376 433 10,600 1,742 Descending FlightAware UK
Sun 05:11:21 AM 51.4870 -1.1925 292° West 374 430 12,400 2,000 Climbing FlightAware ADS-B
Sun 05:11:44 AM 51.5075 -1.2495 292° West 386 444 11,600 2,400 Descending FlightAware UK
Sun 05:11:51 AM 51.5137 -1.2663 292° West 385 443 13,600 3,000 Climbing FlightAware ADS-B
Sun 05:12:08 AM 51.5291 -1.3087 292° West 392 451 12,800 2,129 Descending FlightAware UK
Sun 05:12:22 AM 51.5414 -1.3432 292° West 389 448 14,700 1,400 Climbing FlightAware ADS-B
Sun 05:12:38 AM 51.5556 -1.3833 292° West 396 456 13,500 1,400 Descending FlightAware UK
Sun 05:12:52 AM 51.5685 -1.4185 292° West 389 448 15,400 2,000 Climbing FlightAware ADS-B
Sun 05:13:08 AM 51.5826 -1.4589 292° West 400 460 14,500 2,400 Descending FlightAware UK
Sun 05:13:22 AM 51.5961 -1.4947 292° West 398 458 16,600 4,865 Climbing FlightAware ADS-B
Sun 05:13:45 AM 51.6171 -1.5527 300° West 402 463 17,500 2,323 Climbing FlightAware ADS-B
Sun 05:13:53 AM 51.6235 -1.5744 295° West 401 461 17,800 2,100 Climbing FlightAware ADS-B
Sun 05:14:05 AM 51.6306 -1.6065 290° West 401 461 18,200 -1,556 Climbing FlightAware ADS-B
Sun 05:14:20 AM 51.6381 -1.6513 290° West 414 476 17,100 1,800 Descending FlightAware UK
Sun 05:14:35 AM 51.6455 -1.6940 290° West 410 472 19,100 1,800 Climbing FlightAware ADS-B
Sun 05:14:50 AM 51.6529 -1.7388 290° West 422 486 18,000 2,000 Descending FlightAware UK
Sun 05:15:05 AM 51.6613 -1.7836 290° West 418 481 20,100 1,833 Climbing FlightAware ADS-B
Sun 05:15:26 AM 51.6722 -1.8457 290° West 430 495 19,100 1,800 Descending FlightAware UK
Sun 05:15:35 AM 51.6776 -1.8742 290° West 424 488 21,000 4,615 Climbing FlightAware ADS-B
Sun 05:16:05 AM 51.6942 -1.9662 286° West 427 491 22,100 429 Climbing FlightAware ADS-B
Sun 05:16:31 AM 51.7088 -2.0460 286° West 444 511 21,400 1,935 Descending FlightAware UK
Sun 05:16:36 AM 51.7116 -2.0612 286° West 431 496 23,100 2,000 Climbing FlightAware ADS-B
Sun 05:16:55 AM 51.7224 -2.1198 286° West 448 516 22,200 1,935 Descending FlightAware UK
Sun 05:17:07 AM 51.7291 -2.1552 286° West 435 501 24,100 3,857 Climbing FlightAware ADS-B
Sun 05:17:37 AM 51.7464 -2.2505 286° West 441 507 24,900 -111 Climbing FlightAware ADS-B
Sun 05:18:01 AM 51.7602 -2.3260 286° West 460 529 24,000 1,600 Descending FlightAware UK
Sun 05:18:07 AM 51.7636 -2.3452 286° West 444 511 25,700 1,750 Climbing FlightAware ADS-B
Sun 05:18:25 AM 51.7741 -2.4021 286° West 462 532 24,700 1,548 Descending FlightAware UK
Sun 05:18:38 AM 51.7815 -2.4440 286° West 448 516 26,500 3,467 Climbing FlightAware ADS-B
Sun 05:19:10 AM 51.8000 -2.5465 286° West 454 522 27,300 -638 Climbing FlightAware ADS-B
Sun 05:19:25 AM 51.8087 -2.5954 286° West 470 541 26,000 1,125 Descending FlightAware UK
Sun 05:19:42 AM 51.8187 -2.6515 286° West 462 532 27,900 1,333 Climbing FlightAware ADS-B
Sun 05:20:01 AM 51.8298 -2.7143 286° West 480 552 26,800 1,500 Descending FlightAware UK
Sun 05:20:14 AM 51.8375 -2.7571 286° West 464 534 28,700 1,400 Climbing FlightAware ADS-B
Sun 05:20:31 AM 51.8476 -2.8141 286° West 480 552 27,500 -1,371 Descending FlightAware UK
Sun 05:20:49 AM 51.8582 -2.8738 286° West 484 557 27,900 5,217 Climbing FlightAware UK
Sun 05:20:54 AM 51.8614 -2.8912 286° West 469 540 29,500 1,000 Climbing FlightAware ADS-B
Sun 05:21:13 AM 51.8728 -2.9549 286° West 488 562 28,300 833 Descending FlightAware UK
Sun 05:21:30 AM 51.8839 -3.0138 286° West 478 550 30,000 167 Climbing FlightAware ADS-B
Sun 05:21:49 AM 51.8957 -3.0783 286° West 492 566 28,400  Descending FlightAware UK
Sun 05:22:02 AM 51.9037 -3.1220 286° West 480 552 30,000 200 Climbing FlightAware ADS-B
Sun 05:22:19 AM 51.9144 -3.1813 286° West 492 566 28,500 -2,571 Descending FlightAware UK
Sun 05:22:37 AM 51.9260 -3.2429 287° West 492 566 28,500 2,093 Level FlightAware UK
Sun 05:23:02 AM 51.9400 -3.3210 287° West 486 559 30,000 2,250 Climbing FlightAware ADS-B
Sun 05:23:17 AM 51.9518 -3.3820 287° West 483 556 30,000 -2,571 Level FlightAware ADS-B
Sun 05:23:37 AM 51.9615 -3.4524 287° West 494 568 28,500  Descending FlightAware UK
Sun 05:23:52 AM 51.9664 -3.5060 287° West 479 551 30,000  Climbing FlightAware ADS-B
Sun 05:24:07 AM 51.9699 -3.5586 287° West 494 568 28,500  Descending FlightAware UK
Sun 05:24:27 AM 51.9750 -3.6210 287° West 480 552 30,000 4,091 Climbing FlightAware ADS-B
Sun 05:24:29 AM 51.9758 -3.6373 275° West 479 551 30,000 -2,647 Level FlightAware ADS-B
Sun 05:25:01 AM 51.9845 -3.7512 275° West 494 568 28,500  Descending FlightAware UK
Sun 05:25:08 AM 51.9868 -3.7769 275° West 483 556 30,000  Climbing FlightAware ADS-B
Sun 05:25:24 AM 51.9914 -3.8366 275° West 496 571 28,500 -2,647 Descending FlightAware UK
Sun 05:25:42 AM 51.9967 -3.9012 278° West 494 568 28,500 3,913 Level FlightAware UK
Sun 05:25:47 AM 51.9980 -3.9140 278° West 483 556 30,000 5,625 Climbing FlightAware ADS-B
Sun 05:25:58 AM 52.0016 -3.9582 278° West 483 556 30,000 -2,813 Level FlightAware ADS-B
Sun 05:26:19 AM 52.0113 -4.0305 278° West 498 573 28,500  Descending FlightAware UK
Sun 05:26:31 AM 52.0178 -4.0725 278° West 490 564 30,000  Climbing FlightAware ADS-B
Sun 05:26:48 AM 52.0276 -4.1362 278° West 494 568 28,500  Descending FlightAware UK
Sun 05:27:01 AM 52.0342 -4.1796 278° West 487 560 30,000  Climbing FlightAware ADS-B
Sun 05:27:18 AM 52.0438 -4.2428 278° West 500 575 28,500  Descending FlightAware UK
Sun 05:27:31 AM 52.0499 -4.2866 278° West 486 559 30,000  Climbing FlightAware ADS-B
Sun 05:27:54 AM 52.0616 -4.3679 278° West 498 573 28,500 -2,195 Descending FlightAware UK
Sun 05:28:12 AM 52.0703 -4.4304 283° West 498 573 28,500 2,093 Level FlightAware UK
Sun 05:28:37 AM 52.0800 -4.5050 283° West 471 542 30,000  Climbing FlightAware ADS-B
Sun 05:28:54 AM 52.0901 -4.5748 283° West 496 571 28,500 -2,571 Descending FlightAware UK
Sun 05:29:12 AM 52.0985 -4.6366 282° West 494 568 28,500 3,913 Level FlightAware UK
Sun 05:29:17 AM 52.0990 -4.6430 282° West 468 539 30,000  Climbing FlightAware ADS-B
Sun 05:29:42 AM 52.1124 -4.7397 282° West 494 568 28,500  Descending FlightAware UK
Sun 05:30:02 AM 52.1200 -4.8010 282° West 472 543 30,000 -167 Climbing FlightAware ADS-B
Sun 05:30:18 AM 52.1288 -4.8634 282° West 498 573 28,400 -2,824 Descending FlightAware UK
Sun 05:30:36 AM 52.1376 -4.9257 283° West 496 571 28,400 4,000 Level FlightAware UK
Sun 05:30:42 AM 52.1400 -4.9390 283° West 472 543 30,000 200 Climbing FlightAware ADS-B
Sun 05:31:06 AM 52.1525 -5.0294 283° West 494 568 28,500  Descending FlightAware UK
Sun 05:31:27 AM 52.1620 -5.0960 283° West 474 545 30,000 -167 Climbing FlightAware ADS-B
Sun 05:31:42 AM 52.1702 -5.1543 283° West 498 573 28,400 -2,727 Descending FlightAware UK
Sun 05:32:00 AM 52.1790 -5.2170 283° West 498 573 28,500 3,840 Climbing FlightAware UK
Sun 05:32:07 AM 52.1810 -5.2350 283° West 474 545 30,000  Climbing FlightAware ADS-B
Sun 05:32:24 AM 52.1907 -5.3005 283° West 498 573 28,500 -2,571 Descending FlightAware UK
Sun 05:32:42 AM 52.1993 -5.3631 283° West 498 573 28,500 3,913 Level FlightAware UK
Sun 05:32:47 AM 52.2000 -5.3750 283° West 473 544 30,000 -250 Climbing FlightAware ADS-B
Sun 05:33:06 AM 52.2106 -5.4464 283° West 502 578 28,400 -2,432 Descending FlightAware UK
Sun 05:33:24 AM 52.2191 -5.5086 283° West 500 575 28,500 3,692 Climbing FlightAware UK
Sun 05:33:32 AM 52.2210 -5.5270 283° West 468 539 30,000  Climbing FlightAware ADS-B
Sun 05:33:48 AM 52.2298 -5.5906 283° West 498 573 28,500 -2,647 Descending FlightAware UK
Sun 05:34:06 AM 52.2328 -5.6532 274° West 502 578 28,500 4,737 Level FlightAware UK
Sun 05:34:07 AM 52.2330 -5.6450 274° West 469 540 30,000  Climbing FlightAware ADS-B
Sun 05:34:24 AM 52.2278 -5.7159 274° West 500 575 28,500  Descending FlightAware UK
Sun 05:34:27 AM 52.2270 -5.7200 274° West 468 539 30,000 -333 Climbing FlightAware ADS-B
Sun 05:34:42 AM 52.2146 -5.7753 274° West 500 575 28,400 -2,727 Descending FlightAware UK
Sun 05:35:00 AM 52.1984 -5.8336 246° West 498 573 28,500 4,800 Climbing FlightAware UK
Sun 05:35:02 AM 52.1990 -5.8310 246° West 471 542 30,000 -250 Climbing FlightAware ADS-B
Sun 05:35:24 AM 52.1762 -5.9108 246° West 498 573 28,400 -2,400 Descending FlightAware UK
Sun 05:35:42 AM 52.1592 -5.9684 244° Southwest 498 573 28,400 5,333 Level FlightAware UK
Sun 05:35:42 AM 52.1610 -5.9620 244° Southwest 473 544 30,000  Climbing FlightAware ADS-B
Sun 05:36:00 AM 52.1428 -6.0255 244° Southwest 498 573 28,400 -2,500 Descending FlightAware UK
Sun 05:36:18 AM 52.1260 -6.0833 245° Southwest 494 568 28,500 3,556 Climbing FlightAware UK
Sun 05:36:27 AM 52.1190 -6.1040 245° Southwest 475 547 30,000  Climbing FlightAware ADS-B
Sun 05:36:42 AM 52.1033 -6.1602 245° Southwest 498 573 28,500 -2,727 Descending FlightAware UK
Sun 05:37:00 AM 52.0863 -6.2182 244° Southwest 498 573 28,500 3,600 Level FlightAware UK
Sun 05:37:07 AM 52.0820 -6.2310 244° Southwest 478 550 30,000 1,250 Climbing FlightAware ADS-B
Sun 05:37:24 AM 52.0635 -6.2962 244° Southwest 500 575 29,000 1,333 Descending FlightAware UK
Sun 05:37:52 AM 52.0390 -6.3760 244° Southwest 471 542 31,000 625 Climbing FlightAware ADS-B
Sun 05:38:12 AM 52.0181 -6.4499 244° Southwest 492 566 29,500 -2,368 Descending FlightAware UK
Sun 05:38:30 AM 52.0015 -6.5066 245° Southwest 494 568 29,500 4,500 Level FlightAware UK
Sun 05:38:32 AM 52.0040 -6.4960 245° Southwest 468 539 31,000  Climbing FlightAware ADS-B
Sun 05:38:48 AM 51.9848 -6.5632 245° Southwest 494 568 29,500 -2,647 Descending FlightAware UK
Sun 05:39:06 AM 51.9680 -6.6197 244° Southwest 494 568 29,500 3,750 Level FlightAware UK
Sun 05:39:12 AM 51.9640 -6.6320 244° Southwest 464 534 31,000 -250 Climbing FlightAware ADS-B
Sun 05:39:30 AM 51.9456 -6.6946 244° Southwest 488 562 29,400 -2,500 Descending FlightAware UK
Sun 05:39:48 AM 51.9291 -6.7508 245° Southwest 492 566 29,500 3,556 Climbing FlightAware UK
Sun 05:39:57 AM 51.9210 -6.7760 245° Southwest 464 534 31,000 -200 Climbing FlightAware ADS-B
Sun 05:40:18 AM 51.9012 -6.8445 245° Southwest 492 566 29,400 -2,308 Descending FlightAware UK
Sun 05:40:36 AM 51.8843 -6.9005 244° Southwest 490 564 29,500 5,053 Climbing FlightAware UK
Sun 05:40:37 AM 51.8850 -6.8940 244° Southwest 463 533 31,000  Climbing FlightAware ADS-B
Sun 05:40:54 AM 51.8673 -6.9564 244° Southwest 490 564 29,500 -2,571 Descending FlightAware UK
Sun 05:41:12 AM 51.8503 -7.0124 244° Southwest 490 564 29,500 3,913 Level FlightAware UK
Sun 05:41:17 AM 51.8480 -7.0190 244° Southwest 464 534 31,000  Climbing FlightAware ADS-B
Sun 05:41:36 AM 51.8274 -7.0870 244° Southwest 490 564 29,500 -2,432 Descending FlightAware UK
Sun 05:41:54 AM 51.8102 -7.1430 244° Southwest 490 564 29,500 3,462 Level FlightAware UK
Sun 05:42:02 AM 51.8040 -7.1620 244° Southwest 466 536 31,000  Climbing FlightAware ADS-B
Sun 05:42:18 AM 51.7874 -7.2172 244° Southwest 492 566 29,500 -2,647 Descending FlightAware UK
Sun 05:42:36 AM 51.7702 -7.2734 244° Southwest 492 566 29,500 3,750 Level FlightAware UK
Sun 05:42:42 AM 51.7670 -7.2840 244° Southwest 466 536 31,000  Climbing FlightAware ADS-B
Sun 05:43:00 AM 51.7471 -7.3479 244° Southwest 490 564 29,500 -2,500 Descending FlightAware UK
Sun 05:43:18 AM 51.7300 -7.4038 244° Southwest 490 564 29,500 3,333 Level FlightAware UK
Sun 05:43:27 AM 51.7230 -7.4270 244° Southwest 466 536 31,000  Climbing FlightAware ADS-B
Sun 05:43:42 AM 51.7072 -7.4781 244° Southwest 488 562 29,500 -2,727 Descending FlightAware UK
Sun 05:44:00 AM 51.6900 -7.5340 244° Southwest 492 566 29,500 3,600 Level FlightAware UK
Sun 05:44:07 AM 51.6840 -7.5530 244° Southwest 468 539 31,000  Climbing FlightAware ADS-B
Sun 05:44:24 AM 51.6672 -7.6087 244° Southwest 490 564 29,500 -2,571 Descending FlightAware UK
Sun 05:44:42 AM 51.6499 -7.6647 244° Southwest 490 564 29,500 3,214 Level FlightAware UK
Sun 05:44:52 AM 51.6430 -7.6830 244° Southwest 469 540 31,000  Climbing FlightAware ADS-B
Sun 05:45:12 AM 51.6210 -7.7582 244° Southwest 492 566 29,500 -2,368 Descending FlightAware UK
Sun 05:45:30 AM 51.6037 -7.8142 243° Southwest 492 566 29,500 4,500 Level FlightAware UK
Sun 05:45:32 AM 51.6020 -7.8150 243° Southwest 469 540 31,000  Climbing FlightAware ADS-B
Sun 05:45:48 AM 51.5860 -7.8701 243° Southwest 490 564 29,500 -2,647 Descending FlightAware UK
Sun 05:46:06 AM 51.5684 -7.9260 243° Southwest 490 564 29,500 3,750 Level FlightAware UK
Sun 05:46:12 AM 51.5630 -7.9390 243° Southwest 469 540 31,000  Climbing FlightAware ADS-B
Sun 05:46:30 AM 51.5448 -8.0004 243° Southwest 490 564 29,500 -2,500 Descending FlightAware UK
Sun 05:46:48 AM 51.5271 -8.0563 243° Southwest 488 562 29,500 3,333 Level FlightAware UK
Sun 05:46:57 AM 51.5230 -8.0670 243° Southwest 470 541 31,000  Climbing FlightAware ADS-B
Sun 05:47:12 AM 51.5035 -8.1309 243° Southwest 490 564 29,500 -2,909 Descending FlightAware UK
Sun 05:47:30 AM 51.4856 -8.1869 243° Southwest 490 564 29,400 4,500 Descending FlightAware UK
Sun 05:47:32 AM 51.4870 -8.1800 243° Southwest 469 540 31,000 333 Climbing FlightAware ADS-B
Sun 05:47:48 AM 51.4679 -8.2431 243° Southwest 492 566 29,500 -2,647 Descending FlightAware UK
Sun 05:48:06 AM 51.4501 -8.2985 243° Southwest 490 564 29,500 2,647 Level FlightAware UK
Sun 05:48:22 AM 51.4350 -8.3450 243° Southwest 472 543 31,000  Climbing FlightAware ADS-B
Sun 05:48:42 AM 51.4134 -8.4105 243° Southwest 488 562 29,500 -2,368 Descending FlightAware UK
Sun 05:49:00 AM 51.3955 -8.4666 243° Southwest 490 564 29,500 4,500 Level FlightAware UK
Sun 05:49:02 AM 51.3950 -8.4690 243° Southwest 476 548 31,000  Climbing FlightAware ADS-B
Sun 05:49:18 AM 51.3773 -8.5230 243° Southwest 490 564 29,500 -2,647 Descending FlightAware UK
Sun 05:49:36 AM 51.3590 -8.5794 243° Southwest 490 564 29,500 4,737 Level FlightAware UK
Sun 05:49:37 AM 51.3600 -8.5780 243° Southwest 478 550 31,000  Climbing FlightAware ADS-B
Sun 05:49:54 AM 51.3411 -8.6358 243° Southwest 490 564 29,500 -2,571 Descending FlightAware UK
Sun 05:50:12 AM 51.3230 -8.6922 243° Southwest 492 566 29,500 3,214 Level FlightAware UK
Sun 05:50:22 AM 51.3150 -8.7160 243° Southwest 474 545 31,000  Climbing FlightAware ADS-B
Sun 05:50:42 AM 51.2924 -8.7862 243° Southwest 490 564 29,500 -2,368 Descending FlightAware UK
Sun 05:51:00 AM 51.2739 -8.8424 242° Southwest 486 559 29,500 3,600 Level FlightAware UK
Sun 05:51:07 AM 51.2690 -8.8570 242° Southwest 474 545 31,000  Climbing FlightAware ADS-B
Sun 05:51:24 AM 51.2493 -8.9172 242° Southwest 490 564 29,500 -2,571 Descending FlightAware UK
Sun 05:51:42 AM 51.2309 -8.9735 242° Southwest 488 562 29,500 1,324 Level FlightAware UK
Sun 05:52:32 AM 51.1860 -9.1100 242° Southwest 480 552 31,000 643 Climbing FlightAware ADS-B
Sun 05:53:22 AM 51.1340 -9.2670 242° Southwest 31,000  Level FlightAware ADS-B
Sun 05:54:02 AM 51.0910 -9.3970 242° Southwest 484 557 31,000  Level FlightAware ADS-B
Sun 05:54:52 AM 51.0430 -9.5400 242° Southwest 485 558 31,000  Level FlightAware ADS-B
Sun 05:55:32 AM 50.9930 -9.6880 242° Southwest 487 560 31,000  Level FlightAware ADS-B
Sun 05:56:12 AM 50.9580 -9.7910 242° Southwest 484 557 31,000  Level FlightAware ADS-B
Sun 05:56:52 AM 50.9130 -9.9240 242° Southwest 487 560 31,000  Level FlightAware ADS-B
Sun 05:57:32 AM 50.8650 -10.0640 242° Southwest 489 563 31,000  Level FlightAware ADS-B
Sun 05:58:17 AM 50.8220 -10.1870 241° Southwest 489 563 31,000  Level FlightAware ADS-B
Sun 05:58:57 AM 50.7850 -10.2930 241° Southwest 489 563 31,000  Level FlightAware ADS-B
Sun 05:59:47 AM 50.7380 -10.4260 241° Southwest 489 563 31,000  Level FlightAware ADS-B
Sun 06:00:27 AM 50.6730 -10.6180 242° Southwest 497 572 31,000  Level FlightAware ADS-B
Sun 06:01:07 AM 50.6340 -10.7310 241° Southwest 498 573 31,000  Level FlightAware ADS-B
Sun 06:01:47 AM 50.5960 -10.8390 241° Southwest 498 573 31,000  Level FlightAware ADS-B
Sun 06:02:27 AM 50.5580 -10.9460 241° Southwest 498 573 31,000  Level FlightAware ADS-B
Sun 06:03:17 AM 50.5100 -11.0810 241° Southwest 498 573 31,000  Level FlightAware ADS-B
Sun 06:03:57 AM 50.4720 -11.1890 241° Southwest 498 573 31,000  Level FlightAware ADS-B
Sun 06:04:37 AM 50.4340 -11.2960 241° Southwest 498 573 31,000  Level FlightAware ADS-B
Sun 06:05:17 AM 50.3960 -11.4040 241° Southwest 498 573 31,000  Level FlightAware ADS-B
Sun 06:05:57 AM 50.3580 -11.5110 241° Southwest 498 573 31,000  Level FlightAware ADS-B
Sun 06:06:47 AM 50.3110 -11.6460 241° Southwest 498 573 31,000  Level FlightAware ADS-B
Sun 06:07:27 AM 50.2730 -11.7530 241° Southwest 498 573 31,000  Level FlightAware ADS-B
Sun 06:08:07 AM 50.2350 -11.8600 241° Southwest 498 573 31,000  Level FlightAware ADS-B
Sun 06:08:47 AM 50.1970 -11.9670 241° Southwest 498 573 31,000  Level FlightAware ADS-B
Sun 06:09:27 AM 50.1590 -12.0740 241° Southwest 498 573 31,000  Level FlightAware ADS-B
Sun 06:10:07 AM 50.1210 -12.1810 241° Southwest 498 573 31,000  Level FlightAware ADS-B
Sun 06:12:00 AM 50.1957 -12.5193 289° West  Level Estimated
Sun 06:13:00 AM 50.2350 -12.6994 289° West  Level Estimated
Sun 06:14:00 AM 50.2740 -12.8798 289° West  Level Estimated
Sun 06:15:00 AM 50.3128 -13.0605 289° West  Level Estimated
Sun 06:16:00 AM 50.3512 -13.2414 288° West  Level Estimated
Sun 06:17:00 AM 50.3894 -13.4227 288° West  Level Estimated
Sun 06:18:00 AM 50.4273 -13.6042 288° West  Level Estimated
Sun 06:19:00 AM 50.4649 -13.7861 288° West  Level Estimated
Sun 06:20:00 AM 50.5022 -13.9682 288° West  Level Estimated
Sun 06:21:00 AM 50.5392 -14.1506 288° West  Level Estimated
Sun 06:22:00 AM 50.5760 -14.3333 288° West  Level Estimated
Sun 06:23:00 AM 50.6124 -14.5163 287° West  Level Estimated
Sun 06:24:00 AM 50.6486 -14.6995 287° West  Level Estimated
Sun 06:25:00 AM 50.6845 -14.8831 287° West  Level Estimated
Sun 06:26:00 AM 50.7201 -15.0669 287° West  Level Estimated
Sun 06:27:00 AM 50.7554 -15.2510 287° West  Level Estimated
Sun 06:28:00 AM 50.7904 -15.4354 287° West  Level Estimated
Sun 06:29:00 AM 50.8251 -15.6201 287° West  Level Estimated
Sun 06:30:00 AM 50.8596 -15.8050 287° West  Level Estimated
Sun 06:31:00 AM 50.8937 -15.9902 286° West  Level Estimated
Sun 06:32:00 AM 50.9276 -16.1757 286° West  Level Estimated
Sun 06:33:00 AM 50.9611 -16.3614 286° West  Level Estimated
Sun 06:34:00 AM 50.9944 -16.5474 286° West  Level Estimated
Sun 06:35:00 AM 51.0273 -16.7337 286° West  Level Estimated
Sun 06:36:00 AM 51.0600 -16.9202 286° West  Level Estimated
Sun 06:37:00 AM 51.0924 -17.1070 285° West  Level Estimated
Sun 06:38:00 AM 51.1245 -17.2941 285° West  Level Estimated
Sun 06:39:00 AM 51.1562 -17.4814 285° West  Level Estimated
Sun 06:40:00 AM 51.1877 -17.6690 285° West  Level Estimated
Sun 06:41:00 AM 51.2189 -17.8568 285° West  Level Estimated
Sun 06:42:00 AM 51.2497 -18.0449 285° West  Level Estimated
Sun 06:43:00 AM 51.2803 -18.2332 285° West  Level Estimated
Sun 06:44:00 AM 51.3106 -18.4218 284° West  Level Estimated
Sun 06:45:00 AM 51.3405 -18.6107 284° West  Level Estimated
Sun 06:46:00 AM 51.3702 -18.7997 284° West  Level Estimated
Sun 06:47:00 AM 51.3996 -18.9891 284° West  Level Estimated
Sun 06:48:00 AM 51.4286 -19.1786 284° West  Level Estimated
Sun 06:49:00 AM 51.4573 -19.3685 284° West  Level Estimated
Sun 06:49:00 AM 48.0000 -20.0000 250° West 519 597 31,000  Level ETMS Enhanced Traffic Management System
Sun 06:50:00 AM 51.4858 -19.5588 284° West  Level Estimated
Sun 06:51:00 AM 51.5140 -19.7494 283° West  Level Estimated
Sun 06:52:00 AM 51.5419 -19.9403 283° West  Level Estimated
Sun 06:53:00 AM 51.5694 -20.1313 283° West  Level Estimated
Sun 06:54:00 AM 51.5967 -20.3226 283° West  Level Estimated
Sun 06:55:00 AM 47.6483 -21.4099 249° West 519 597 31,000  Level FlightAware Transoceanic
Sun 06:56:00 AM 47.5966 -21.6097 249° West 519 597 31,000  Level FlightAware Transoceanic
Sun 06:57:00 AM 47.5446 -21.8092 249° West 519 597 31,000  Level FlightAware Transoceanic
Sun 06:58:00 AM 47.4923 -22.0082 249° West 519 597 31,000  Level FlightAware Transoceanic
Sun 06:59:00 AM 47.4396 -22.2069 249° West 519 597 31,000  Level FlightAware Transoceanic
Sun 07:00:00 AM 47.3866 -22.4051 248° West 519 597 31,000  Level FlightAware Transoceanic
Sun 07:01:00 AM 47.3332 -22.6030 248° West 519 597 31,000  Level FlightAware Transoceanic
Sun 07:02:00 AM 47.2795 -22.8004 248° West 519 597 31,000  Level FlightAware Transoceanic
Sun 07:03:00 AM 47.2254 -22.9975 248° West 519 597 31,000  Level FlightAware Transoceanic
Sun 07:04:00 AM 47.1711 -23.1942 248° West 519 597 31,000  Level FlightAware Transoceanic
Sun 07:05:00 AM 47.1163 -23.3904 248° West 519 597 31,000  Level FlightAware Transoceanic
Sun 07:06:00 AM 47.0613 -23.5862 247° West 519 597 31,000  Level FlightAware Transoceanic
Sun 07:07:00 AM 47.0059 -23.7817 247° West 519 597 31,000  Level FlightAware Transoceanic
Sun 07:08:00 AM 46.9502 -23.9767 247° West 519 597 31,000  Level FlightAware Transoceanic
Sun 07:09:00 AM 46.8941 -24.1713 247° West 519 597 31,000  Level FlightAware Transoceanic
Sun 07:10:00 AM 46.8378 -24.3655 247° West 519 597 31,000  Level FlightAware Transoceanic
Sun 07:11:00 AM 46.7811 -24.5593 247° West 519 597 31,000  Level FlightAware Transoceanic
Sun 07:12:00 AM 46.7240 -24.7528 247° West 519 597 31,000  Level FlightAware Transoceanic
Sun 07:13:00 AM 46.6667 -24.9457 247° West 519 597 31,000  Level FlightAware Transoceanic
Sun 07:14:00 AM 46.6090 -25.1383 246° West 519 597 31,000  Level FlightAware Transoceanic
Sun 07:15:00 AM 46.5510 -25.3305 246° West 519 597 31,000  Level FlightAware Transoceanic
Sun 07:16:00 AM 46.4926 -25.5222 246° West 519 597 31,000  Level FlightAware Transoceanic
Sun 07:17:00 AM 46.4340 -25.7136 246° West 519 597 31,000  Level FlightAware Transoceanic
Sun 07:18:00 AM 46.3750 -25.9045 246° West 519 597 31,000  Level FlightAware Transoceanic
Sun 07:19:00 AM 46.3158 -26.0951 246° West 519 597 31,000  Level FlightAware Transoceanic
Sun 07:20:00 AM 46.2562 -26.2852 246° West 519 597 31,000  Level FlightAware Transoceanic
Sun 07:21:00 AM 46.1963 -26.4748 245° Southwest 519 597 31,000  Level FlightAware Transoceanic
Sun 07:22:00 AM 46.1360 -26.6641 245° Southwest 519 597 31,000  Level FlightAware Transoceanic
Sun 07:23:00 AM 46.0755 -26.8530 245° Southwest 519 597 31,000  Level FlightAware Transoceanic
Sun 07:24:00 AM 46.0146 -27.0414 245° Southwest 519 597 31,000  Level FlightAware Transoceanic
Sun 07:25:00 AM 45.9535 -27.2295 245° Southwest 519 597 31,000  Level FlightAware Transoceanic
Sun 07:26:00 AM 45.8920 -27.4171 245° Southwest 519 597 31,000  Level FlightAware Transoceanic
Sun 07:27:00 AM 45.8303 -27.6043 245° Southwest 519 597 31,000  Level FlightAware Transoceanic
Sun 07:28:00 AM 45.7682 -27.7911 244° Southwest 519 597 31,000  Level FlightAware Transoceanic
Sun 07:29:00 AM 45.7058 -27.9774 244° Southwest 519 597 31,000  Level FlightAware Transoceanic
Sun 07:30:00 AM 45.6431 -28.1634 244° Southwest 519 597 31,000  Level FlightAware Transoceanic
Sun 07:31:00 AM 45.5802 -28.3489 244° Southwest 519 597 31,000  Level FlightAware Transoceanic
Sun 07:32:00 AM 45.5169 -28.5340 244° Southwest 519 597 31,000  Level FlightAware Transoceanic
Sun 07:33:00 AM 45.4533 -28.7188 244° Southwest 519 597 31,000  Level FlightAware Transoceanic
Sun 07:34:00 AM 45.3894 -28.9030 244° Southwest 519 597 31,000  Level FlightAware Transoceanic
Sun 07:35:00 AM 45.3252 -29.0869 244° Southwest 519 597 31,000  Level FlightAware Transoceanic
Sun 07:36:00 AM 45.2608 -29.2704 243° Southwest 519 597 31,000  Level FlightAware Transoceanic
Sun 07:37:00 AM 45.1960 -29.4534 243° Southwest 519 597 31,000  Level FlightAware Transoceanic
Sun 07:38:00 AM 45.1310 -29.6360 243° Southwest 519 597 31,000  Level FlightAware Transoceanic
Sun 07:39:00 AM 45.0656 -29.8182 243° Southwest 519 597 31,000  Level FlightAware Transoceanic
Sun 07:40:00 AM 45.0899 -29.9923 281° West  Level Estimated
Sun 07:41:00 AM 45.1139 -30.1673 281° West  Level Estimated
Sun 07:42:00 AM 45.1377 -30.3425 281° West  Level Estimated
Sun 07:43:00 AM 45.1613 -30.5178 281° West  Level Estimated
Sun 07:44:00 AM 45.1846 -30.6933 281° West  Level Estimated
Sun 07:45:00 AM 45.2076 -30.8689 281° West  Level Estimated
Sun 07:46:00 AM 45.2303 -31.0446 280° West  Level Estimated
Sun 07:47:00 AM 45.2527 -31.2205 280° West  Level Estimated
Sun 07:48:00 AM 45.2749 -31.3965 280° West  Level Estimated
Sun 07:49:00 AM 45.2968 -31.5727 280° West  Level Estimated
Sun 07:50:00 AM 45.3185 -31.7490 280° West  Level Estimated
Sun 07:51:00 AM 45.3399 -31.9254 280° West  Level Estimated
Sun 07:52:00 AM 45.3610 -32.1020 280° West  Level Estimated
Sun 07:53:00 AM 45.3818 -32.2787 280° West  Level Estimated
Sun 07:54:00 AM 45.4024 -32.4555 279° West  Level Estimated
Sun 07:55:00 AM 45.4227 -32.6325 279° West  Level Estimated
Sun 07:56:00 AM 45.4427 -32.8096 279° West  Level Estimated
Sun 07:57:00 AM 45.4624 -32.9868 279° West  Level Estimated
Sun 07:58:00 AM 45.4819 -33.1641 279° West  Level Estimated
Sun 07:59:00 AM 45.5011 -33.3416 279° West  Level Estimated
Sun 08:00:00 AM 45.5200 -33.5191 279° West  Level Estimated
Sun 08:01:00 AM 45.5387 -33.6968 279° West  Level Estimated
Sun 08:02:00 AM 45.5570 -33.8746 278° West  Level Estimated
Sun 08:03:00 AM 45.5751 -34.0526 278° West  Level Estimated
Sun 08:04:00 AM 45.5929 -34.2306 278° West  Level Estimated
Sun 08:05:00 AM 45.6105 -34.4087 278° West  Level Estimated
Sun 08:06:00 AM 45.6277 -34.5870 278° West  Level Estimated
Sun 08:07:00 AM 45.6447 -34.7654 278° West  Level Estimated
Sun 08:08:00 AM 45.6614 -34.9439 278° West  Level Estimated
Sun 08:09:00 AM 45.6779 -35.1224 278° West  Level Estimated
Sun 08:10:00 AM 45.6940 -35.3011 277° West  Level Estimated
Sun 08:11:00 AM 45.7099 -35.4799 277° West  Level Estimated
Sun 08:12:00 AM 45.7255 -35.6588 277° West  Level Estimated
Sun 08:13:00 AM 45.7408 -35.8378 277° West  Level Estimated
Sun 08:14:00 AM 45.7558 -36.0169 277° West  Level Estimated
Sun 08:15:00 AM 45.7706 -36.1961 277° West  Level Estimated
Sun 08:16:00 AM 45.7850 -36.3754 277° West  Level Estimated
Sun 08:17:00 AM 45.7992 -36.5547 277° West  Level Estimated
Sun 08:18:00 AM 45.8131 -36.7342 276° West  Level Estimated
Sun 08:19:00 AM 45.8268 -36.9137 276° West  Level Estimated
Sun 08:20:00 AM 45.8401 -37.0934 276° West  Level Estimated
Sun 08:21:00 AM 45.8532 -37.2731 276° West  Level Estimated
Sun 08:22:00 AM 45.8660 -37.4529 276° West  Level Estimated
Sun 08:23:00 AM 45.8785 -37.6328 276° West  Level Estimated
Sun 08:24:00 AM 45.8907 -37.8127 276° West  Level Estimated
Sun 08:25:00 AM 45.9026 -37.9928 276° West  Level Estimated
Sun 08:26:00 AM 45.9143 -38.1729 275° West  Level Estimated
Sun 08:27:00 AM 45.9257 -38.3531 275° West  Level Estimated
Sun 08:28:00 AM 45.9367 -38.5334 275° West  Level Estimated
Sun 08:29:00 AM 45.9476 -38.7137 275° West  Level Estimated
Sun 08:30:00 AM 45.9581 -38.8941 275° West  Level Estimated
Sun 08:31:00 AM 45.9683 -39.0746 275° West  Level Estimated
Sun 08:31:43 AM 43.0000 -40.0000 273° West 505 581 31,000  Level New York Oceanic (ODAPS)
Sun 08:32:00 AM 45.9783 -39.2551 275° West  Level Estimated
Sun 08:33:00 AM 45.9879 -39.4357 274° West  Level Estimated
Sun 08:34:00 AM 45.9973 -39.6164 274° West  Level Estimated
Sun 08:35:00 AM 46.0064 -39.7971 274° West  Level Estimated
Sun 08:36:00 AM 46.0153 -39.9779 274° West  Level Estimated
Sun 08:37:00 AM 46.0238 -40.1588 274° West  Level Estimated
Sun 08:38:00 AM 43.0499 -41.3188 273° West 505 581 31,000  Level FlightAware Transoceanic
Sun 08:38:14 AM 43.0500 -41.3333 273° West 496 571 31,000  Level New York Oceanic (ODAPS)
Sun 08:39:00 AM 43.0558 -41.5073 272° West 505 581 31,000  Level FlightAware Transoceanic
Sun 08:40:00 AM 43.0614 -41.6959 272° West 505 581 31,000  Level FlightAware Transoceanic
Sun 08:41:00 AM 43.0667 -41.8845 272° West 505 581 31,000  Level FlightAware Transoceanic
Sun 08:42:00 AM 43.0717 -42.0732 272° West 505 581 31,000  Level FlightAware Transoceanic
Sun 08:43:00 AM 43.0763 -42.2619 272° West 505 581 31,000  Level FlightAware Transoceanic
Sun 08:44:00 AM 43.0806 -42.4633 272° West 496 571 31,000  Level FlightAware Transoceanic
Sun 08:45:00 AM 43.0846 -42.6517 272° West 496 571 31,000  Level FlightAware Transoceanic
Sun 08:46:00 AM 43.0883 -42.8401 271° West 496 571 31,000  Level FlightAware Transoceanic
Sun 08:47:00 AM 43.0917 -43.0286 271° West 496 571 31,000  Level FlightAware Transoceanic
Sun 08:48:00 AM 43.0948 -43.2171 271° West 496 571 31,000  Level FlightAware Transoceanic
Sun 08:49:00 AM 43.0976 -43.4056 271° West 496 571 31,000  Level FlightAware Transoceanic
Sun 08:50:00 AM 43.1001 -43.5941 271° West 496 571 31,000  Level FlightAware Transoceanic
Sun 08:51:00 AM 43.1022 -43.7827 271° West 496 571 31,000  Level FlightAware Transoceanic
Sun 08:52:00 AM 43.1041 -43.9712 271° West 496 571 31,000  Level FlightAware Transoceanic
Sun 08:52:09 AM 43.1000 -44.0167 271° West 493 567 31,000  Level New York Oceanic (ODAPS)
Sun 08:53:00 AM 43.1056 -44.1598 271° West 496 571 31,000  Level FlightAware Transoceanic
Sun 08:54:00 AM 43.1069 -44.3484 270° West 496 571 31,000  Level FlightAware Transoceanic
Sun 08:55:00 AM 43.1078 -44.5369 270° West 496 571 31,000  Level FlightAware Transoceanic
Sun 08:56:00 AM 43.1084 -44.7255 270° West 496 571 31,000  Level FlightAware Transoceanic
Sun 08:57:00 AM 43.1087 -44.9141 270° West 496 571 31,000  Level FlightAware Transoceanic
Sun 08:58:00 AM 43.1050 -45.1395 270° West 493 567 31,000  Level FlightAware Transoceanic
Sun 08:59:00 AM 43.1048 -45.3267 270° West 493 567 31,000  Level FlightAware Transoceanic
Sun 09:00:00 AM 43.1043 -45.5139 270° West 493 567 31,000  Level FlightAware Transoceanic
Sun 09:01:00 AM 43.1034 -45.7010 270° West 493 567 31,000  Level FlightAware Transoceanic
Sun 09:02:00 AM 43.1023 -45.8881 269° West 493 567 31,000  Level FlightAware Transoceanic
Sun 09:03:00 AM 43.1008 -46.0753 269° West 493 567 31,000  Level FlightAware Transoceanic
Sun 09:04:00 AM 43.0990 -46.2624 269° West 493 567 31,000  Level FlightAware Transoceanic
Sun 09:05:00 AM 43.0970 -46.4495 269° West 493 567 31,000  Level FlightAware Transoceanic
Sun 09:05:58 AM 43.1000 -46.6667 269° West 486 559 31,000  Level New York Oceanic (ODAPS)
Sun 09:06:00 AM 43.0946 -46.6366 269° West 493 567 31,000  Level FlightAware Transoceanic
Sun 09:07:00 AM 43.0920 -46.8237 269° West 493 567 31,000  Level FlightAware Transoceanic
Sun 09:08:00 AM 43.0890 -47.0108 269° West 493 567 31,000  Level FlightAware Transoceanic
Sun 09:09:00 AM 43.0857 -47.1978 269° West 493 567 31,000  Level FlightAware Transoceanic
Sun 09:10:00 AM 43.0821 -47.3848 268° West 493 567 31,000  Level FlightAware Transoceanic
Sun 09:11:00 AM 43.0782 -47.5718 268° West 493 567 31,000  Level FlightAware Transoceanic
Sun 09:12:00 AM 43.0774 -47.7789 268° West 486 559 31,000  Level FlightAware Transoceanic
Sun 09:13:00 AM 43.0726 -47.9642 268° West 486 559 31,000  Level FlightAware Transoceanic
Sun 09:14:00 AM 43.0675 -48.1495 268° West 486 559 31,000  Level FlightAware Transoceanic
Sun 09:15:00 AM 43.0621 -48.3347 268° West 486 559 31,000  Level FlightAware Transoceanic
Sun 09:16:00 AM 43.0564 -48.5199 268° West 486 559 31,000  Level FlightAware Transoceanic
Sun 09:17:00 AM 43.0504 -48.7050 267° West 486 559 31,000  Level FlightAware Transoceanic
Sun 09:18:00 AM 43.0441 -48.8902 267° West 486 559 31,000  Level FlightAware Transoceanic
Sun 09:19:00 AM 43.0375 -49.0752 267° West 486 559 31,000  Level FlightAware Transoceanic
Sun 09:19:52 AM 43.0333 -49.2167 267° West 479 551 31,000  Level New York Oceanic (ODAPS)
Sun 09:20:00 AM 43.0306 -49.2603 267° West 486 559 31,000  Level FlightAware Transoceanic
Sun 09:21:00 AM 43.0234 -49.4453 267° West 486 559 31,000  Level FlightAware Transoceanic
Sun 09:22:00 AM 43.0159 -49.6302 267° West 486 559 31,000  Level FlightAware Transoceanic
Sun 09:23:00 AM 43.0081 -49.8151 267° West 486 559 31,000  Level FlightAware Transoceanic
Sun 09:24:00 AM 43.0000 -50.0000 258° West 486 559 31,000  Level FlightAware Transoceanic
Sun 09:24:32 AM 43.0000 -50.0000 258° West 460 529 31,000  Level New York Oceanic (ODAPS)
Sun 09:25:00 AM 42.9739 -50.1716 258° West 486 559 31,000  Level FlightAware Transoceanic
Sun 09:26:00 AM 42.9476 -50.3430 258° West 479 551 31,000  Level FlightAware Transoceanic
Sun 09:27:00 AM 42.9210 -50.5142 258° West 479 551 31,000  Level FlightAware Transoceanic
Sun 09:28:00 AM 42.8942 -50.6854 258° West 479 551 31,000  Level FlightAware Transoceanic
Sun 09:29:00 AM 42.8671 -50.8563 258° West 479 551 31,000  Level FlightAware Transoceanic
Sun 09:30:00 AM 42.8398 -51.0271 258° West 460 529 31,000  Level FlightAware Transoceanic
Sun 09:31:00 AM 42.8122 -51.1978 258° West 460 529 31,000  Level FlightAware Transoceanic
Sun 09:32:00 AM 42.7843 -51.3683 257° West 460 529 31,000  Level FlightAware Transoceanic
Sun 09:33:00 AM 42.7562 -51.5387 257° West 460 529 31,000 1,698 Level FlightAware Transoceanic
Sun 09:33:46 AM 42.7333 -51.6833 257° West 463 533 34,000  Climbing New York Oceanic (ODAPS)
Sun 09:34:00 AM 42.7279 -51.7089 257° West 460 529 31,000 -2,432 Descending FlightAware Transoceanic
Sun 09:35:00 AM 42.6993 -51.8789 257° West 460 529 31,000  Level FlightAware Transoceanic
Sun 09:36:00 AM 42.6704 -52.0488 257° West 460 529 31,000  Level FlightAware Transoceanic
Sun 09:37:00 AM 42.6413 -52.2186 257° West 460 529 31,000  Level FlightAware Transoceanic
Sun 09:38:00 AM 42.6120 -52.3881 257° West 460 529 31,000  Level FlightAware Transoceanic
Sun 09:39:00 AM 42.5824 -52.5575 257° West 460 529 31,000 1,500 Level FlightAware Transoceanic
Sun 09:40:00 AM 42.5575 -52.7044 256° West 463 533 34,000 1,500 Climbing FlightAware Transoceanic
Sun 09:41:00 AM 42.5273 -52.8741 256° West 463 533 34,000  Level FlightAware Transoceanic
Sun 09:42:00 AM 42.4969 -53.0435 256° West 463 533 34,000  Level FlightAware Transoceanic
Sun 09:43:00 AM 42.4662 -53.2128 256° West 463 533 34,000  Level FlightAware Transoceanic
Sun 09:44:00 AM 42.4352 -53.3819 256° West 463 533 34,000  Level FlightAware Transoceanic
Sun 09:45:00 AM 42.4041 -53.5509 256° West 463 533 34,000  Level FlightAware Transoceanic
Sun 09:46:00 AM 42.3726 -53.7197 256° West 463 533 34,000  Level FlightAware Transoceanic
Sun 09:47:00 AM 42.3410 -53.8883 256° West 463 533 34,000  Level FlightAware Transoceanic
Sun 09:47:38 AM 42.3000 -54.1167 255° West 458 527 34,000  Level New York Oceanic (ODAPS)
Sun 09:48:00 AM 42.3090 -54.0567 256° West 463 533 34,000  Level FlightAware Transoceanic
Sun 09:49:00 AM 42.2769 -54.2250 255° West 463 533 34,000  Level FlightAware Transoceanic
Sun 09:50:00 AM 42.2444 -54.3931 255° West 463 533 34,000  Level FlightAware Transoceanic
Sun 09:51:00 AM 42.2118 -54.5611 255° West 463 533 34,000  Level FlightAware Transoceanic
Sun 09:52:00 AM 42.1789 -54.7288 255° West 463 533 34,000  Level FlightAware Transoceanic
Sun 09:53:00 AM 42.1044 -55.1134 255° West 458 527 34,000  Level FlightAware Transoceanic
Sun 09:54:00 AM 42.0709 -55.2790 255° West 458 527 34,000  Level FlightAware Transoceanic
Sun 09:55:00 AM 42.0373 -55.4443 255° West 458 527 34,000  Level FlightAware Transoceanic
Sun 09:56:00 AM 42.0033 -55.6095 254° West 458 527 34,000  Level FlightAware Transoceanic
Sun 09:57:00 AM 41.9692 -55.7745 254° West 458 527 34,000  Level FlightAware Transoceanic
Sun 09:58:00 AM 41.9348 -55.9393 254° West 458 527 34,000  Level FlightAware Transoceanic
Sun 09:59:00 AM 41.9002 -56.1040 254° West 458 527 34,000  Level FlightAware Transoceanic
Sun 10:00:00 AM 41.8653 -56.2684 254° West 458 527 34,000  Level FlightAware Transoceanic
Sun 10:01:00 AM 41.8302 -56.4327 254° West 458 527 34,000  Level FlightAware Transoceanic
Sun 10:01:28 AM 41.8333 -56.4167 254° West 450 518 34,000  Level New York Oceanic (ODAPS)
Sun 10:02:00 AM 41.7949 -56.5968 254° West 458 527 34,000  Level FlightAware Transoceanic
Sun 10:03:00 AM 41.7593 -56.7607 254° West 458 527 34,000  Level FlightAware Transoceanic
Sun 10:04:00 AM 41.7235 -56.9245 254° West 458 527 34,000  Level FlightAware Transoceanic
Sun 10:05:00 AM 41.6875 -57.0880 254° West 458 527 34,000  Level FlightAware Transoceanic
Sun 10:06:00 AM 41.6513 -57.2514 253° West 458 527 34,000  Level FlightAware Transoceanic
Sun 10:07:00 AM 41.6267 -57.3603 253° West 450 518 34,000  Level FlightAware Transoceanic
Sun 10:08:00 AM 41.5915 -57.5169 253° West 450 518 34,000  Level FlightAware Transoceanic
Sun 10:09:00 AM 41.5561 -57.6734 253° West 450 518 34,000  Level FlightAware Transoceanic
Sun 10:10:00 AM 41.5205 -57.8298 253° West 450 518 34,000  Level FlightAware Transoceanic
Sun 10:11:00 AM 41.4847 -57.9859 253° West 450 518 34,000  Level FlightAware Transoceanic
Sun 10:12:00 AM 41.4487 -58.1419 253° West 450 518 34,000  Level FlightAware Transoceanic
Sun 10:13:00 AM 41.4124 -58.2977 253° West 450 518 34,000  Level FlightAware Transoceanic
Sun 10:14:00 AM 41.3760 -58.4534 253° West 450 518 34,000  Level FlightAware Transoceanic
Sun 10:15:00 AM 41.3393 -58.6088 253° West 450 518 34,000  Level FlightAware Transoceanic
Sun 10:15:20 AM 41.3333 -58.6333 252° West 442 509 34,000  Level New York Oceanic (ODAPS)
Sun 10:16:00 AM 41.3024 -58.7641 252° West 450 518 34,000  Level FlightAware Transoceanic
Sun 10:17:00 AM 41.2654 -58.9192 252° West 450 518 34,000  Level FlightAware Transoceanic
Sun 10:18:00 AM 41.2281 -59.0741 252° West 450 518 34,000  Level FlightAware Transoceanic
Sun 10:19:00 AM 41.1906 -59.2289 252° West 450 518 34,000  Level FlightAware Transoceanic
Sun 10:20:00 AM 41.1529 -59.3835 252° West 450 518 34,000  Level FlightAware Transoceanic
Sun 10:21:00 AM 41.1129 -59.5460 252° West 442 509 34,000  Level FlightAware Transoceanic
Sun 10:22:00 AM 41.0755 -59.6975 252° West 442 509 34,000  Level FlightAware Transoceanic
Sun 10:23:00 AM 41.0378 -59.8488 252° West 442 509 34,000  Level FlightAware Transoceanic
Sun 10:24:00 AM 41.0000 -60.0000 263° West 442 509 34,000  Level FlightAware Transoceanic
Sun 10:24:22 AM 41.0000 -60.0000 263° West 427 491 34,000  Level New York Oceanic (ODAPS)
Sun 10:25:00 AM 40.9856 -60.1507 263° West 442 509 34,000  Level FlightAware Transoceanic
Sun 10:26:00 AM 40.9711 -60.3014 263° West 442 509 34,000  Level FlightAware Transoceanic
Sun 10:27:00 AM 40.9563 -60.4520 263° West 442 509 34,000  Level FlightAware Transoceanic
Sun 10:28:00 AM 40.9414 -60.6025 262° West 442 509 34,000  Level FlightAware Transoceanic
Sun 10:29:00 AM 40.9263 -60.7530 262° West 442 509 34,000  Level FlightAware Transoceanic
Sun 10:29:12 AM 40.9167 -60.8000 262° West 420 483 34,000  Level New York Oceanic (ODAPS)
Sun 10:30:00 AM 40.9068 -60.9435 262° West 427 491 34,000  Level FlightAware Transoceanic
Sun 10:31:00 AM 40.8905 -61.1004 262° West 427 491 34,000  Level FlightAware Transoceanic
Sun 10:32:00 AM 40.8741 -61.2573 262° West 427 491 34,000  Level FlightAware Transoceanic
Sun 10:33:00 AM 40.8573 -61.4142 262° West 427 491 34,000  Level FlightAware Transoceanic
Sun 10:34:00 AM 40.8404 -61.5709 262° West 427 491 34,000  Level FlightAware Transoceanic
Sun 10:35:00 AM 40.8204 -61.7162 262° West 420 483 34,000  Level FlightAware Transoceanic
Sun 10:36:00 AM 40.8037 -61.8686 262° West 420 483 34,000  Level FlightAware Transoceanic
Sun 10:37:00 AM 40.7867 -62.0210 262° West 420 483 34,000  Level FlightAware Transoceanic
Sun 10:38:00 AM 40.7696 -62.1732 261° West 420 483 34,000  Level FlightAware Transoceanic
Sun 10:39:00 AM 40.7523 -62.3254 261° West 420 483 34,000  Level FlightAware Transoceanic
Sun 10:40:00 AM 40.7347 -62.4775 261° West 420 483 34,000  Level FlightAware Transoceanic
Sun 10:41:00 AM 40.7170 -62.6296 261° West 420 483 34,000  Level FlightAware Transoceanic
Sun 10:42:00 AM 40.6990 -62.7815 261° West 420 483 34,000  Level FlightAware Transoceanic
Sun 10:43:00 AM 40.6809 -62.9334 261° West 420 483 34,000  Level FlightAware Transoceanic
Sun 10:43:07 AM 40.6833 -62.9500 261° West 415 478 34,000  Level New York Oceanic (ODAPS)
Sun 10:44:00 AM 40.6625 -63.0852 261° West 420 483 34,000  Level FlightAware Transoceanic
Sun 10:45:00 AM 40.6440 -63.2369 261° West 420 483 34,000  Level FlightAware Transoceanic
Sun 10:46:00 AM 40.6253 -63.3885 261° West 420 483 34,000  Level FlightAware Transoceanic
Sun 10:47:00 AM 40.6063 -63.5401 261° West 420 483 34,000  Level FlightAware Transoceanic
Sun 10:48:00 AM 40.5872 -63.6915 261° West 420 483 34,000  Level FlightAware Transoceanic
Sun 10:49:00 AM 40.5697 -63.8558 260° West 415 478 34,000  Level FlightAware Transoceanic
Sun 10:50:00 AM 40.5500 -64.0064 260° West 415 478 34,000  Level FlightAware Transoceanic
Sun 10:51:00 AM 40.5302 -64.1570 260° West 415 478 34,000  Level FlightAware Transoceanic
Sun 10:52:00 AM 40.5102 -64.3075 260° West 415 478 34,000  Level FlightAware Transoceanic
Sun 10:53:00 AM 40.4900 -64.4579 260° West 415 478 34,000  Level FlightAware Transoceanic
Sun 10:54:00 AM 40.4696 -64.6082 260° West 415 478 34,000  Level FlightAware Transoceanic
Sun 10:55:00 AM 40.4489 -64.7584 260° West 415 478 34,000  Level FlightAware Transoceanic
Sun 10:56:00 AM 40.4281 -64.9085 260° West 415 478 34,000  Level FlightAware Transoceanic
Sun 10:56:58 AM 40.4167 -65.0167 259° West 404 465 34,000  Level New York Oceanic (ODAPS)
Sun 10:57:00 AM 40.4071 -65.0585 260° West 415 478 34,000  Level FlightAware Transoceanic
Sun 10:58:00 AM 40.3859 -65.2085 259° West 415 478 34,000  Level FlightAware Transoceanic
Sun 10:59:00 AM 40.3646 -65.3583 259° West 415 478 34,000  Level FlightAware Transoceanic
Sun 11:00:00 AM 40.3430 -65.5080 259° West 415 478 34,000  Level FlightAware Transoceanic
Sun 11:01:00 AM 40.3212 -65.6577 259° West 415 478 34,000  Level FlightAware Transoceanic
Sun 11:02:00 AM 40.2993 -65.8072 259° West 415 478 34,000  Level FlightAware Transoceanic
Sun 11:03:00 AM 40.2922 -65.8688 259° West 404 465 34,000  Level FlightAware Transoceanic
Sun 11:04:00 AM 40.2709 -66.0105 259° West 404 465 34,000  Level FlightAware Transoceanic
Sun 11:05:00 AM 40.2494 -66.1522 259° West 404 465 34,000  Level FlightAware Transoceanic
Sun 11:06:00 AM 40.2277 -66.2937 259° West 404 465 34,000 -68 Level FlightAware Transoceanic
Sun 11:06:28 AM 40.2125 -66.3742 258° West 486 559 33,900  Descending New York Center
Sun 11:07:00 AM 40.2058 -66.4351 259° West 404 465 34,000 98 Climbing FlightAware Transoceanic
Sun 11:07:29 AM 40.1931 -66.5247 260° West 464 534 34,000  Level New York Center
Sun 11:08:00 AM 40.1838 -66.5765 258° West 404 465 34,000 -103 Level FlightAware Transoceanic
Sun 11:08:27 AM 40.1739 -66.6344 257° West 428 493 33,900  Descending New York Center
Sun 11:09:00 AM 40.1616 -66.7178 258° West 404 465 34,000  Climbing FlightAware Transoceanic
Sun 11:09:28 AM 40.1458 -66.7992 257° West 400 460 33,900  Descending New York Center
Sun 11:10:00 AM 40.1392 -66.8589 258° West 404 465 34,000  Climbing FlightAware Transoceanic
Sun 11:10:29 AM 40.1256 -66.9414 259° West 395 455 33,900  Descending New York Center
Sun 11:11:27 AM 40.1425 -67.0844 279° West 395 455 34,000  Climbing New York Center
Sun 11:12:28 AM 40.2031 -67.2253 299° West 396 456 33,900 -50 Descending New York Center
Sun 11:13:28 AM 40.2653 -67.3636 301° West 427 491 33,900 31 Level New York Center
Sun 11:15:39 AM 40.3867 -67.6881 296° West 460 529 34,000  Climbing Boston Center
Sun 11:16:39 AM 40.4444 -67.8283 298° West 460 529 33,900  Descending Boston Center
Sun 11:17:39 AM 40.5006 -67.9744 297° West 460 529 34,000  Climbing Boston Center
Sun 11:18:39 AM 40.5522 -68.1214 295° West 455 524 33,900  Descending Boston Center
Sun 11:19:39 AM 40.6117 -68.2597 300° West 460 529 34,000 50 Climbing Boston Center
Sun 11:20:39 AM 40.6667 -68.4011 297° West 441 507 34,000  Level Boston Center
Sun 11:21:39 AM 40.7200 -68.5486 296° West 449 517 34,000  Level Boston Center
Sun 11:22:39 AM 40.7769 -68.6903 298° West 443 510 34,000  Level Boston Center
Sun 11:23:39 AM 40.8317 -68.8353 297° West 464 534 34,000  Level Boston Center
Sun 11:24:39 AM 40.8861 -68.9750 297° West 452 520 34,000  Level Boston Center
Sun 11:30:42 AM 41.2110 -69.8350 297° West 437 503 34,000  Level FlightAware ADS-B
Sun 11:31:22 AM 41.2420 -69.9170 297° West 437 503 34,000  Level FlightAware ADS-B
Sun 11:32:07 AM 41.2720 -70.0480 287° West 410 472 34,000  Level FlightAware ADS-B
Sun 11:33:02 AM 41.2490 -70.1810 257° West 388 447 34,000  Level FlightAware ADS-B
Sun 11:33:42 AM 41.2290 -70.2660 253° West 392 451 34,000  Level FlightAware ADS-B
Sun 11:34:22 AM 41.2080 -70.3580 253° West 395 455 34,000  Level FlightAware ADS-B
Sun 11:35:07 AM 41.1840 -70.4690 254° West 395 455 34,000  Level FlightAware ADS-B
Sun 11:35:42 AM 41.1670 -70.5470 254° West 395 455 34,000  Level FlightAware ADS-B
Sun 11:36:27 AM 41.1420 -70.6560 253° West 396 456 34,000  Level FlightAware ADS-B
Sun 11:37:17 AM 41.1160 -70.7730 254° West 400 460 34,000  Level FlightAware ADS-B
Sun 11:37:57 AM 41.0970 -70.8570 253° West 400 460 34,000  Level FlightAware ADS-B
Sun 11:38:52 AM 41.0650 -70.9970 253° West 402 463 34,000  Level FlightAware ADS-B
Sun 11:39:37 AM 41.0420 -71.0980 253° West 402 463 34,000  Level FlightAware ADS-B
Sun 11:40:32 AM 41.0140 -71.2180 253° West 402 463 34,000  Level FlightAware ADS-B
Sun 11:41:07 AM 40.9930 -71.3090 253° West 405 466 34,000  Level FlightAware ADS-B
Sun 11:41:30 AM 40.9782 -71.3740 253° West 406 467 34,000  Level FlightAware ADS-B
Sun 11:42:01 AM 40.9608 -71.4487 253° West 406 467 34,000  Level FlightAware ADS-B
Sun 11:42:36 AM 40.9416 -71.5314 253° West 407 468 34,000  Level FlightAware ADS-B
Sun 11:43:09 AM 40.9233 -71.6092 253° West 407 468 34,000  Level FlightAware ADS-B
Sun 11:43:43 AM 40.9047 -71.6884 253° West 407 468 34,000  Level FlightAware ADS-B
Sun 11:44:19 AM 40.8843 -71.7744 253° West 407 468 34,000  Level FlightAware ADS-B
Sun 11:44:57 AM 40.8631 -71.8637 253° West 406 467 34,000  Level FlightAware ADS-B
Sun 11:45:35 AM 40.8419 -71.9534 253° West 406 467 34,000  Level FlightAware ADS-B
Sun 11:46:05 AM 40.8248 -72.0252 253° West 406 467 34,000  Level FlightAware ADS-B
Sun 11:46:51 AM 40.7990 -72.1325 252° West 406 467 34,000  Level FlightAware ADS-B
Sun 11:47:23 AM 40.7809 -72.2078 252° West 405 466 34,000  Level FlightAware ADS-B
Sun 11:47:57 AM 40.7617 -72.2874 252° West 405 466 34,000  Level FlightAware ADS-B
Sun 11:48:29 AM 40.7434 -72.3628 252° West 406 467 34,000  Level FlightAware ADS-B
Sun 11:49:01 AM 40.7248 -72.4397 252° West 407 468 34,000  Level FlightAware ADS-B
Sun 11:49:32 AM 40.7070 -72.5127 252° West 409 471 34,000  Level FlightAware ADS-B
Sun 11:50:05 AM 40.6880 -72.5905 252° West 409 471 34,000  Level FlightAware ADS-B
Sun 11:50:38 AM 40.6689 -72.6683 252° West 409 471 34,000  Level FlightAware ADS-B
Sun 11:51:12 AM 40.6494 -72.7477 252° West 409 471 34,000  Level FlightAware ADS-B
Sun 11:51:42 AM 40.6330 -72.8140 252° West 410 472 34,000  Level FlightAware ADS-B
Sun 11:51:52 AM 40.6257 -72.8438 252° West 410 472 34,000  Level FlightAware ADS-B
Sun 11:52:24 AM 40.6067 -72.9201 252° West 410 472 34,000  Level FlightAware ADS-B
Sun 11:53:08 AM 40.5813 -73.0224 252° West 410 472 34,000  Level FlightAware ADS-B
Sun 11:53:38 AM 40.5634 -73.0936 252° West 410 472 34,000  Level FlightAware ADS-B
Sun 11:54:09 AM 40.5448 -73.1682 252° West 410 472 34,000  Level FlightAware ADS-B
Sun 11:54:41 AM 40.5259 -73.2430 252° West 411 473 34,000  Level FlightAware ADS-B
Sun 11:55:18 AM 40.5040 -73.3302 252° West 412 474 34,000  Level FlightAware ADS-B
Sun 11:55:48 AM 40.4857 -73.4026 252° West 412 474 34,000  Level FlightAware ADS-B
Sun 11:56:21 AM 40.4659 -73.4806 252° West 413 475 34,000  Level FlightAware ADS-B
Sun 11:56:58 AM 40.4434 -73.5685 251° West 415 478 34,000  Level FlightAware ADS-B
Sun 11:57:29 AM 40.4244 -73.6426 251° West 416 479 34,000  Level FlightAware ADS-B
Sun 11:58:05 AM 40.4028 -73.7270 251° West 416 479 34,000  Level FlightAware ADS-B
Sun 11:58:35 AM 40.3840 -73.8000 251° West 417 480 34,000  Level FlightAware ADS-B
Sun 11:59:20 AM 40.3566 -73.9065 251° West 418 481 34,000  Level FlightAware ADS-B
Sun 11:59:50 AM 40.3380 -73.9783 251° West 418 481 34,000  Level FlightAware ADS-B
Sun 12:00:22 PM 40.3179 -74.0554 251° West 418 481 34,000  Level FlightAware ADS-B
Sun 12:00:52 PM 40.2989 -74.1280 251° West 417 480 34,000  Level FlightAware ADS-B
Sun 12:01:22 PM 40.2803 -74.1995 251° West 416 479 34,000  Level FlightAware ADS-B
Sun 12:01:55 PM 40.2598 -74.2778 251° West 416 479 34,000  Level FlightAware ADS-B
Sun 12:02:26 PM 40.2407 -74.3501 251° West 417 480 34,000  Level FlightAware ADS-B
Sun 12:02:56 PM 40.2216 -74.4226 251° West 417 480 34,000  Level FlightAware ADS-B
Sun 12:03:18 PM 40.2084 -74.4764 252° West 419 482 34,000  Level FlightAware ADS-B
Sun 12:03:34 PM 40.2020 -74.5147 258° West 420 483 34,000  Level FlightAware ADS-B
Sun 12:04:06 PM 40.1942 -74.5958 263° West 423 487 34,000  Level FlightAware ADS-B
Sun 12:04:37 PM 40.1883 -74.6740 264° West 423 487 34,000  Level FlightAware ADS-B
Sun 12:05:07 PM 40.1824 -74.7515 264° West 423 487 34,000  Level FlightAware ADS-B
Sun 12:05:37 PM 40.1764 -74.8279 264° West 423 487 34,000  Level FlightAware ADS-B
Sun 12:06:08 PM 40.1701 -74.9042 264° West 423 487 34,000  Level FlightAware ADS-B
Sun 12:06:41 PM 40.1631 -74.9890 264° West 422 486 34,000  Level FlightAware ADS-B
Sun 12:07:12 PM 40.1566 -75.0675 264° West 423 487 34,000  Level FlightAware ADS-B
Sun 12:07:51 PM 40.1485 -75.1660 264° West 422 486 34,000  Level FlightAware ADS-B
Sun 12:08:28 PM 40.1406 -75.2603 264° West 422 486 34,000  Level FlightAware ADS-B
Sun 12:08:58 PM 40.1342 -75.3360 264° West 421 484 34,000  Level FlightAware ADS-B
Sun 12:09:28 PM 40.1277 -75.4120 264° West 420 483 34,000  Level FlightAware ADS-B
Sun 12:10:04 PM 40.1201 -75.5010 264° West 421 484 34,000  Level FlightAware ADS-B
Sun 12:10:40 PM 40.1121 -75.5929 264° West 421 484 34,000  Level FlightAware ADS-B
Sun 12:11:13 PM 40.1050 -75.6741 264° West 421 484 34,000  Level FlightAware ADS-B
Sun 12:11:43 PM 40.0983 -75.7501 263° West 421 484 34,000  Level FlightAware ADS-B
Sun 12:12:13 PM 40.0915 -75.8271 263° West 422 486 34,000  Level FlightAware ADS-B
Sun 12:12:44 PM 40.0845 -75.9057 263° West 423 487 34,000  Level FlightAware ADS-B
Sun 12:13:16 PM 40.0773 -75.9849 263° West 423 487 34,000  Level FlightAware ADS-B
Sun 12:13:47 PM 40.0702 -76.0636 263° West 423 487 34,000  Level FlightAware ADS-B
Sun 12:14:17 PM 40.0632 -76.1401 263° West 424 488 34,000  Level FlightAware ADS-B
Sun 12:14:48 PM 40.0557 -76.2200 263° West 425 489 34,000  Level FlightAware ADS-B
Sun 12:14:59 PM 40.0505 -76.2468 256° West 422 486 34,000  Level FlightAware ADS-B
Sun 12:15:31 PM 40.0230 -76.3183 243° Southwest 421 484 34,000  Level FlightAware ADS-B
Sun 12:16:04 PM 39.9956 -76.3934 245° Southwest 421 484 34,000  Level FlightAware ADS-B
Sun 12:16:34 PM 39.9701 -76.4637 245° Southwest 422 486 34,000  Level FlightAware ADS-B
Sun 12:17:06 PM 39.9413 -76.5343 242° Southwest 421 484 34,000  Level FlightAware ADS-B
Sun 12:17:38 PM 39.9118 -76.6060 242° Southwest 421 484 34,000  Level FlightAware ADS-B
Sun 12:18:10 PM 39.8829 -76.6766 242° Southwest 421 484 34,000  Level FlightAware ADS-B
Sun 12:18:43 PM 39.8527 -76.7504 242° Southwest 421 484 34,000  Level FlightAware ADS-B
Sun 12:19:15 PM 39.8223 -76.8235 242° Southwest 422 486 34,000  Level FlightAware ADS-B
Sun 12:19:47 PM 39.7933 -76.8929 241° Southwest 422 486 34,000  Level FlightAware ADS-B
Sun 12:20:19 PM 39.7633 -76.9644 241° Southwest 423 487 34,000  Level FlightAware ADS-B
Sun 12:20:50 PM 39.7341 -77.0338 241° Southwest 423 487 34,000  Level FlightAware ADS-B
Sun 12:21:22 PM 39.7041 -77.1046 241° Southwest 422 486 34,000  Level FlightAware ADS-B
Sun 12:21:55 PM 39.6728 -77.1783 241° Southwest 422 486 34,000  Level FlightAware ADS-B
Sun 12:22:30 PM 39.6399 -77.2559 241° Southwest 423 487 34,000  Level FlightAware ADS-B
Sun 12:23:01 PM 39.6110 -77.3238 241° Southwest 424 488 34,000  Level FlightAware ADS-B
Sun 12:23:31 PM 39.5822 -77.3915 241° Southwest 426 490 34,000  Level FlightAware ADS-B
Sun 12:24:03 PM 39.5520 -77.4620 241° Southwest 425 489 34,000  Level FlightAware ADS-B
Sun 12:24:35 PM 39.5212 -77.5337 241° Southwest 423 487 34,000  Level FlightAware ADS-B
Sun 12:25:06 PM 39.4922 -77.6014 241° Southwest 421 484 34,000  Level FlightAware ADS-B
Sun 12:25:37 PM 39.4700 -77.6520 240° Southwest 420 483 34,000  Level FlightAware ADS-B
Sun 12:25:39 PM 39.4606 -77.6748 242° Southwest 420 483 34,000  Level FlightAware ADS-B
Sun 12:26:17 PM 39.4280 -77.7510 241° Southwest 421 484 34,000  Level FlightAware ADS-B
Sun 12:26:26 PM 39.4163 -77.7774 240° Southwest 421 484 34,000  Level FlightAware ADS-B
Sun 12:26:57 PM 39.3890 -77.8410 241° Southwest 422 486 34,000  Level FlightAware ADS-B
Sun 12:27:08 PM 39.3763 -77.8701 241° Southwest 422 486 34,000  Level FlightAware ADS-B
Sun 12:27:43 PM 39.3461 -77.9470 243° Southwest 422 486 34,000  Level FlightAware ADS-B
Sun 12:28:22 PM 39.3140 -78.0300 243° Southwest 424 488 34,000  Level FlightAware ADS-B
Sun 12:29:02 PM 39.2770 -78.1220 243° Southwest 425 489 34,000  Level FlightAware ADS-B
Sun 12:29:42 PM 39.2440 -78.2040 243° Southwest 425 489 34,000  Level FlightAware ADS-B
Sun 12:30:27 PM 39.2030 -78.3060 243° Southwest 423 487 34,000  Level FlightAware ADS-B
Sun 12:31:07 PM 39.1780 -78.3940 250° West 423 487 34,000  Level FlightAware ADS-B
Sun 12:31:47 PM 39.1580 -78.4940 256° West 423 487 34,000  Level FlightAware ADS-B
Sun 12:32:32 PM 39.1310 -78.6090 253° West 424 488 34,000  Level FlightAware ADS-B
Sun 12:33:17 PM 39.1050 -78.7180 253° West 424 488 34,000  Level FlightAware ADS-B
Sun 12:33:57 PM 39.0820 -78.8180 254° West 426 490 34,000  Level FlightAware ADS-B
Sun 12:34:42 PM 39.0560 -78.9250 253° West 426 490 34,000  Level FlightAware ADS-B
Sun 12:35:17 PM 39.0380 -79.0050 254° West 424 488 34,000  Level FlightAware ADS-B
Sun 12:36:02 PM 39.0150 -79.1010 253° West 425 489 34,000  Level FlightAware ADS-B
Sun 12:36:37 PM 38.9930 -79.1960 253° West 425 489 34,000  Level FlightAware ADS-B
Sun 12:37:27 PM 38.9630 -79.3230 253° West 426 490 34,000  Level FlightAware ADS-B
Sun 12:38:12 PM 38.9360 -79.4360 253° West 428 493 34,000  Level FlightAware ADS-B
Sun 12:38:47 PM 38.9160 -79.5200 253° West 428 493 34,000  Level FlightAware ADS-B
Sun 12:39:32 PM 38.8890 -79.6310 253° West 427 491 34,000  Level FlightAware ADS-B
Sun 12:40:17 PM 38.8630 -79.7390 253° West 428 493 34,000  Level FlightAware ADS-B
Sun 12:40:57 PM 38.8400 -79.8350 253° West 429 494 34,000  Level FlightAware ADS-B
Sun 12:41:42 PM 38.8120 -79.9470 252° West 428 493 34,000  Level FlightAware ADS-B
Sun 12:42:17 PM 38.7920 -80.0300 253° West 428 493 34,000  Level FlightAware ADS-B
Sun 12:43:07 PM 38.7620 -80.1500 252° West 428 493 34,000  Level FlightAware ADS-B
Sun 12:43:47 PM 38.7390 -80.2460 253° West 428 493 34,000  Level FlightAware ADS-B
Sun 12:44:27 PM 38.7150 -80.3420 252° West 428 493 34,000  Level FlightAware ADS-B
Sun 12:45:12 PM 38.6870 -80.4540 252° West 429 494 34,000  Level FlightAware ADS-B
Sun 12:45:52 PM 38.6640 -80.5460 252° West 429 494 34,000  Level FlightAware ADS-B
Sun 12:46:37 PM 38.6360 -80.6590 252° West 431 496 34,000  Level FlightAware ADS-B
Sun 12:47:17 PM 38.6110 -80.7560 252° West 430 495 34,000  Level FlightAware ADS-B
Sun 12:47:57 PM 38.5870 -80.8520 252° West 430 495 34,000  Level FlightAware ADS-B
Sun 12:48:42 PM 38.5600 -80.9590 252° West 431 496 34,000  Level FlightAware ADS-B
Sun 12:49:22 PM 38.5350 -81.0560 252° West 432 497 34,000  Level FlightAware ADS-B
Sun 12:50:02 PM 38.5110 -81.1500 252° West 432 497 34,000  Level FlightAware ADS-B
Sun 12:50:47 PM 38.4820 -81.2640 252° West 433 498 34,000  Level FlightAware ADS-B
Sun 12:51:27 PM 38.4560 -81.3620 251° West 434 499 34,000  Level FlightAware ADS-B
Sun 12:52:12 PM 38.4290 -81.4670 252° West 436 502 34,000  Level FlightAware ADS-B
Sun 12:52:52 PM 38.4040 -81.5640 252° West 437 503 34,000  Level FlightAware ADS-B
Sun 12:53:37 PM 38.3750 -81.6740 251° West 436 502 34,000  Level FlightAware ADS-B
Sun 12:54:17 PM 38.3520 -81.7730 254° West 440 506 34,000  Level FlightAware ADS-B
Sun 12:54:57 PM 38.3410 -81.8750 262° West 446 513 34,000  Level FlightAware ADS-B
Sun 12:55:42 PM 38.3280 -81.9940 262° West 441 507 34,000  Level FlightAware ADS-B
Sun 12:56:22 PM 38.3100 -82.0970 257° West 443 510 34,000  Level FlightAware ADS-B
Sun 12:57:07 PM 38.2940 -82.2060 259° West 444 511 34,000  Level FlightAware ADS-B
Sun 12:57:47 PM 38.2750 -82.3100 257° West 443 510 34,000  Level FlightAware ADS-B
Sun 12:58:27 PM 38.2570 -82.4100 257° West 443 510 34,000  Level FlightAware ADS-B
Sun 12:59:12 PM 38.2350 -82.5280 257° West 444 511 34,000  Level FlightAware ADS-B
Sun 12:59:52 PM 38.2170 -82.6300 257° West 444 511 34,000  Level FlightAware ADS-B
Sun 01:00:32 PM 38.1980 -82.7320 257° West 444 511 34,000  Level FlightAware ADS-B
Sun 01:01:17 PM 38.1770 -82.8430 257° West 445 512 34,000  Level FlightAware ADS-B
Sun 01:01:57 PM 38.1590 -82.9370 256° West 444 511 34,000  Level FlightAware ADS-B
Sun 01:02:42 PM 38.1360 -83.0610 257° West 445 512 34,000  Level FlightAware ADS-B
Sun 01:02:54 PM 38.1297 -83.0935 256° West 445 512 34,000  Level FlightAware ADS-B
Sun 01:03:26 PM 38.1138 -83.1764 256° West 446 513 34,000  Level FlightAware ADS-B
Sun 01:03:59 PM 38.0980 -83.2589 256° West 449 517 34,000  Level FlightAware ADS-B
Sun 01:04:38 PM 38.0787 -83.3592 256° West 450 518 34,000  Level FlightAware ADS-B
Sun 01:05:13 PM 38.0613 -83.4495 256° West 451 519 34,000  Level FlightAware ADS-B
Sun 01:05:57 PM 38.0420 -83.5450 256° West 450 518 34,000  Level FlightAware ADS-B
Sun 01:06:37 PM 38.0250 -83.6320 256° West 450 518 34,000  Level FlightAware ADS-B
Sun 01:07:16 PM 37.9995 -83.7659 256° West 451 519 34,000  Level FlightAware ADS-B
Sun 01:07:54 PM 37.9804 -83.8625 256° West 454 522 34,000  Level FlightAware ADS-B
Sun 01:08:42 PM 37.9570 -83.9820 256° West 453 521 34,000  Level FlightAware ADS-B
Sun 01:08:56 PM 37.9490 -84.0208 255° West 454 522 34,000  Level FlightAware ADS-B
Sun 01:09:27 PM 37.9340 -84.0940 255° West 454 522 34,000  Level FlightAware ADS-B
Sun 01:09:31 PM 37.9308 -84.1121 257° West 455 524 34,000  Level FlightAware ADS-B
Sun 01:10:06 PM 37.9125 -84.2032 256° West 456 525 34,000  Level FlightAware ADS-B
Sun 01:10:47 PM 37.8930 -84.3020 256° West 455 524 34,000  Level FlightAware ADS-B
Sun 01:11:17 PM 37.8757 -84.3861 255° West 456 525 34,000  Level FlightAware ADS-B
Sun 01:11:58 PM 37.8543 -84.4915 256° West 457 526 34,000  Level FlightAware ADS-B
Sun 01:12:32 PM 37.8363 -84.5796 256° West 457 526 34,000  Level FlightAware ADS-B
Sun 01:13:02 PM 37.8203 -84.6574 255° West 458 527 34,000  Level FlightAware ADS-B
Sun 01:13:33 PM 37.8041 -84.7362 255° West 458 527 34,000  Level FlightAware ADS-B
Sun 01:14:04 PM 37.7875 -84.8165 255° West 458 527 34,000  Level FlightAware ADS-B
Sun 01:14:34 PM 37.7712 -84.8954 255° West 458 527 34,000  Level FlightAware ADS-B
Sun 01:15:05 PM 37.7547 -84.9744 255° West 458 527 34,000  Level FlightAware ADS-B
Sun 01:15:38 PM 37.7366 -85.0610 255° West 459 528 34,000  Level FlightAware ADS-B
Sun 01:16:09 PM 37.7202 -85.1399 255° West 459 528 34,000  Level FlightAware ADS-B
Sun 01:17:07 PM 37.6900 -85.2840 255° West 461 531 34,000  Level FlightAware ADS-B
Sun 01:17:47 PM 37.6680 -85.3880 255° West 461 531 34,000  Level FlightAware ADS-B
Sun 01:18:27 PM 37.6460 -85.4920 255° West 461 531 34,000  Level FlightAware ADS-B
Sun 01:19:12 PM 37.6200 -85.6100 254° West 460 529 34,000  Level FlightAware ADS-B
Sun 01:19:52 PM 37.5980 -85.7140 255° West 460 529 34,000  Level FlightAware ADS-B
Sun 01:20:37 PM 37.5740 -85.8250 255° West 461 531 34,000  Level FlightAware ADS-B
Sun 01:21:17 PM 37.5510 -85.9320 255° West 462 532 34,000  Level FlightAware ADS-B
Sun 01:21:57 PM 37.5300 -86.0290 255° West 462 532 34,000  Level FlightAware ADS-B
Sun 01:22:37 PM 37.5050 -86.1410 254° West 460 529 34,000  Level FlightAware ADS-B
Sun 01:23:22 PM 37.4800 -86.2560 255° West 461 531 34,000  Level FlightAware ADS-B
Sun 01:24:07 PM 37.4540 -86.3730 254° West 461 531 34,000  Level FlightAware ADS-B
Sun 01:24:47 PM 37.4320 -86.4730 255° West 462 532 34,000  Level FlightAware ADS-B
Sun 01:25:27 PM 37.4100 -86.5700 254° West 463 533 34,000  Level FlightAware ADS-B
Sun 01:26:12 PM 37.3840 -86.6870 254° West 463 533 34,000  Level FlightAware ADS-B
Sun 01:26:52 PM 37.3590 -86.7960 254° West 461 531 34,000  Level FlightAware ADS-B
Sun 01:27:37 PM 37.3320 -86.9160 254° West 459 528 34,000  Level FlightAware ADS-B
Sun 01:28:17 PM 37.3090 -87.0160 254° West 459 528 34,000  Level FlightAware ADS-B
Sun 01:29:02 PM 37.2830 -87.1300 254° West 459 528 34,000  Level FlightAware ADS-B
Sun 01:29:42 PM 37.2590 -87.2370 254° West 458 527 34,000  Level FlightAware ADS-B
Sun 01:30:22 PM 37.2350 -87.3370 253° West 457 526 34,000  Level FlightAware ADS-B
Sun 01:31:07 PM 37.2090 -87.4510 254° West 460 529 34,000  Level FlightAware ADS-B
Sun 01:31:47 PM 37.1850 -87.5530 254° West 461 531 34,000  Level FlightAware ADS-B
Sun 01:32:32 PM 37.1590 -87.6640 254° West 460 529 34,000  Level FlightAware ADS-B
Sun 01:33:12 PM 37.1370 -87.7570 253° West 460 529 34,000  Level FlightAware ADS-B
Sun 01:33:57 PM 37.1070 -87.8860 254° West 461 531 34,000  Level FlightAware ADS-B
Sun 01:34:37 PM 37.0840 -87.9820 253° West 464 534 34,000  Level FlightAware ADS-B
Sun 01:35:22 PM 37.0540 -88.1070 253° West 465 535 34,000  Level FlightAware ADS-B
Sun 01:35:57 PM 37.0350 -88.1890 254° West 464 534 34,000  Level FlightAware ADS-B
Sun 01:36:37 PM 37.0090 -88.2960 253° West 463 533 34,000  Level FlightAware ADS-B
Sun 01:37:22 PM 36.9850 -88.3960 253° West 463 533 34,000  Level FlightAware ADS-B
Sun 01:38:02 PM 36.9630 -88.4830 252° West 463 533 34,000  Level FlightAware ADS-B
Sun 01:38:47 PM 36.9300 -88.6200 253° West 462 532 34,000  Level FlightAware ADS-B
Sun 01:39:27 PM 36.9090 -88.7070 253° West 462 532 34,000  Level FlightAware ADS-B
Sun 01:40:12 PM 36.8750 -88.8440 253° West 463 533 34,000  Level FlightAware ADS-B
Sun 01:40:57 PM 36.8460 -88.9630 253° West 463 533 34,000  Level FlightAware ADS-B
Sun 01:41:27 PM 36.8280 -89.0360 253° West 463 533 34,000  Level FlightAware ADS-B
Sun 01:42:12 PM 36.8020 -89.1350 252° West 463 533 34,000  Level FlightAware ADS-B
Sun 01:42:57 PM 36.7730 -89.2540 253° West 465 535 34,000  Level FlightAware ADS-B
Sun 01:43:47 PM 36.7440 -89.3620 252° West 465 535 34,000  Level FlightAware ADS-B
Sun 01:44:17 PM 36.7280 -89.4280 253° West 465 535 34,000  Level FlightAware ADS-B
Sun 01:45:07 PM 36.6990 -89.5360 252° West 465 535 34,000  Level FlightAware ADS-B
Sun 01:45:47 PM 36.6770 -89.6230 253° West 465 535 34,000  Level FlightAware ADS-B
Sun 01:46:27 PM 36.6540 -89.7090 252° West 465 535 34,000  Level FlightAware ADS-B
Sun 01:47:07 PM 36.6310 -89.7960 252° West 465 535 34,000  Level FlightAware ADS-B
Sun 01:47:57 PM 36.6030 -89.9040 252° West 465 535 34,000  Level FlightAware ADS-B
Sun 01:48:37 PM 36.5810 -89.9910 253° West 465 535 34,000  Level FlightAware ADS-B
Sun 01:49:17 PM 36.5580 -90.0780 252° West 465 535 34,000  Level FlightAware ADS-B
Sun 01:49:57 PM 36.5350 -90.1640 252° West 465 535 34,000  Level FlightAware ADS-B
Sun 01:50:37 PM 36.5130 -90.2510 253° West 465 535 34,000  Level FlightAware ADS-B
Sun 01:51:27 PM 36.4850 -90.3590 252° West 465 535 34,000  Level FlightAware ADS-B
Sun 01:52:07 PM 36.4620 -90.4460 252° West 465 535 34,000  Level FlightAware ADS-B
Sun 01:52:58 PM 36.3539 -90.7950 252° West 473 544 34,000  Level Memphis Center
Sun 01:53:58 PM 36.3053 -90.9442 248° West 473 544 34,000  Level Memphis Center
Sun 01:54:58 PM 36.2567 -91.0931 248° West 473 544 34,000  Level Memphis Center
Sun 01:55:58 PM 36.2078 -91.2419 248° West 473 544 34,000  Level Memphis Center
Sun 01:56:58 PM 36.1606 -91.3931 249° West 473 544 34,000  Level Memphis Center
Sun 01:57:58 PM 36.1072 -91.5414 246° West 473 544 34,000  Level Memphis Center
Sun 01:58:58 PM 36.0597 -91.6869 248° West 473 544 34,000  Level Memphis Center
Sun 01:59:58 PM 36.0081 -91.8350 247° West 473 544 34,000  Level Memphis Center
Sun 02:00:58 PM 35.9606 -91.9828 248° West 473 544 34,000  Level Memphis Center
Sun 02:01:58 PM 35.9147 -92.1256 248° West 467 537 34,000  Level Memphis Center
Sun 02:02:58 PM 35.8667 -92.2681 247° West 467 537 34,000  Level Memphis Center
Sun 02:03:58 PM 35.8164 -92.4178 248° West 467 537 34,000  Level Memphis Center
Sun 02:04:58 PM 35.7661 -92.5597 246° West 467 537 34,000  Level Memphis Center
Sun 02:05:58 PM 35.7153 -92.7067 247° West 467 537 34,000  Level Memphis Center
Sun 02:06:58 PM 35.6644 -92.8508 247° West 467 537 34,000  Level Memphis Center
Sun 02:07:58 PM 35.6261 -92.9928 252° West 473 544 34,000  Level Memphis Center
Sun 02:08:58 PM 35.5711 -93.1314 244° Southwest 473 544 34,000  Level Memphis Center
Sun 02:09:58 PM 35.5200 -93.2725 246° West 467 537 34,000  Level Memphis Center
Sun 02:10:58 PM 35.4686 -93.4136 246° West 462 532 34,000  Level Memphis Center
Sun 02:11:58 PM 35.4192 -93.5569 247° West 462 532 34,000  Level Memphis Center
Sun 02:12:58 PM 35.3694 -93.6978 247° West 457 526 34,000  Level Memphis Center
Sun 02:13:58 PM 35.3178 -93.8356 245° Southwest 457 526 34,000  Level Memphis Center
Sun 02:14:58 PM 35.2678 -93.9783 247° West 457 526 34,000  Level Memphis Center
Sun 02:15:58 PM 35.2178 -94.1161 246° West 457 526 34,000  Level Memphis Center
Sun 02:21:47 PM 34.8500 -94.9180 246° West 474 545 34,000 -14 Level FlightAware ADS-B
Sun 02:22:52 PM 34.7480 -95.0310 222° Southwest 469 540 33,900 -436 Descending FlightAware ADS-B
Sun 02:23:37 PM 34.6800 -95.1160 226° Southwest 466 536 33,200 -1,000 Descending FlightAware ADS-B
Sun 02:24:22 PM 34.6090 -95.2030 225° Southwest 470 541 32,400 -635 Descending FlightAware ADS-B
Sun 02:25:02 PM 34.5530 -95.2710 225° Southwest 470 541 32,300 -1,263 Descending FlightAware ADS-B
Sun 02:25:57 PM 34.4700 -95.3740 226° Southwest 444 511 30,400 -1,200 Descending FlightAware ADS-B
Sun 02:26:42 PM 34.4080 -95.4480 225° Southwest 439 505 30,300 -1,620 Descending FlightAware ADS-B
Sun 02:27:37 PM 34.3330 -95.5400 225° Southwest 410 472 27,700 -2,526 Descending FlightAware ADS-B
Sun 02:28:17 PM 34.2770 -95.6090 226° Southwest 402 463 26,300 -2,329 Descending FlightAware ADS-B
Sun 02:29:02 PM 34.2160 -95.6830 225° Southwest 416 479 24,400 -1,624 Descending FlightAware ADS-B
Sun 02:29:42 PM 34.1610 -95.7490 225° Southwest 416 479 24,000 -300 Descending FlightAware ADS-B
Sun 02:30:22 PM 34.1070 -95.8140 225° Southwest 417 480 24,000 -282 Level FlightAware ADS-B
Sun 02:31:07 PM 34.0470 -95.8860 225° Southwest 413 475 23,600 -1,341 Descending FlightAware ADS-B
Sun 02:31:47 PM 33.9930 -95.9510 225° Southwest 407 468 22,100 -2,188 Descending FlightAware ADS-B
Sun 02:32:32 PM 33.9350 -96.0210 225° Southwest 399 459 20,500 -2,188 Descending FlightAware ADS-B
Sun 02:33:12 PM 33.8800 -96.0870 225° Southwest 393 452 19,000 -2,118 Descending FlightAware ADS-B
Sun 02:33:57 PM 33.8250 -96.1530 225° Southwest 386 444 17,500 -2,025 Descending FlightAware ADS-B
Sun 02:34:32 PM 33.7790 -96.2070 224° Southwest 377 434 16,300 -1,875 Descending FlightAware ADS-B
Sun 02:35:17 PM 33.7260 -96.2710 225° Southwest 359 413 15,000 -2,118 Descending FlightAware ADS-B
Sun 02:35:57 PM 33.6790 -96.3260 224° Southwest 354 407 13,300 -2,259 Descending FlightAware ADS-B
Sun 02:36:42 PM 33.6260 -96.3890 225° Southwest 347 399 11,800 -1,694 Descending FlightAware ADS-B
Sun 02:37:22 PM 33.5820 -96.4410 225° Southwest 311 358 10,900 -1,800 Descending FlightAware ADS-B
Sun 02:37:52 PM 33.5530 -96.4760 225° Southwest 292 336 9,700 -1,800 Descending FlightAware ADS-B
Sun 02:38:22 PM 33.5240 -96.5090 223° Southwest 280 322 9,100 -982 Descending FlightAware ADS-B
Sun 02:38:47 PM 33.5030 -96.5350 226° Southwest 283 326 8,800 -514 Descending FlightAware ADS-B
Sun 02:38:57 PM 33.4930 -96.5460 223° Southwest 283 326 8,800 -533 Level FlightAware ADS-B
Sun 02:39:32 PM 33.4600 -96.5860 225° Southwest 282 325 8,400 -1,000 Descending FlightAware ADS-B
Sun 02:39:57 PM 33.4360 -96.6110 221° Southwest 284 327 7,800 -1,500 Descending FlightAware ADS-B
Sun 02:40:12 PM 33.4200 -96.6280 222° Southwest 284 327 7,400 -1,333 Descending FlightAware ADS-B
Sun 02:40:42 PM 33.3910 -96.6590 222° Southwest 281 323 6,800 -1,091 Descending FlightAware ADS-B
Sun 02:41:07 PM 33.3680 -96.6830 221° Southwest 275 316 6,400 -873 Descending FlightAware ADS-B
Sun 02:41:37 PM 33.3400 -96.7150 224° Southwest 268 308 6,000 -1,000 Descending FlightAware ADS-B
Sun 02:42:07 PM 33.3220 -96.7530 240° Southwest 266 306 5,400 -1,200 Descending FlightAware ADS-B
Sun 02:42:17 PM 33.3170 -96.7660 245° Southwest 264 304 5,200 -900 Descending FlightAware ADS-B
Sun 02:42:47 PM 33.2990 -96.8060 242° Southwest 267 307 4,800 -436 Descending FlightAware ADS-B
Sun 02:43:12 PM 33.2900 -96.8400 252° West 266 306 4,800  Level FlightAware ADS-B
Sun 02:43:42 PM 33.2820 -96.8840 258° West 264 304 4,800  Level FlightAware ADS-B
Sun 02:44:12 PM 33.2740 -96.9270 257° West 259 298 4,800 -240 Level FlightAware ADS-B
Sun 02:44:32 PM 33.2670 -96.9540 253° West 261 300 4,600 -750 Descending FlightAware ADS-B
Sun 02:44:52 PM 33.2580 -96.9810 248° West 254 292 4,300 -600 Descending FlightAware ADS-B
Sun 02:45:22 PM 33.2460 -97.0160 248° West 230 265 4,100 -533 Descending FlightAware ADS-B
Sun 02:45:37 PM 33.2340 -97.0280 220° Southwest 216 249 3,900 -720 Descending FlightAware ADS-B
Sun 02:45:47 PM 33.2250 -97.0340 209° Southwest 209 241 3,800 -150 Descending FlightAware ADS-B
Sun 02:46:17 PM 33.2000 -97.0480 205° Southwest 212 244 3,800  Level FlightAware ADS-B
Sun 02:46:32 PM 33.1870 -97.0530 198° South 215 247 3,800  Level FlightAware ADS-B
Sun 02:46:57 PM 33.1610 -97.0530 180° South 210 242 3,800  Level FlightAware ADS-B
Sun 02:47:27 PM 33.1310 -97.0540 182° South 211 243 3,800  Level FlightAware ADS-B
Sun 02:47:52 PM 33.1060 -97.0540 180° South 210 242 3,800 -218 Level FlightAware ADS-B
Sun 02:48:22 PM 33.0780 -97.0540 180° South 209 241 3,600 -800 Descending FlightAware ADS-B
Sun 02:48:52 PM 33.0480 -97.0540 180° South 202 232 3,000 -1,200 Descending FlightAware ADS-B
Sun 02:49:12 PM 33.0300 -97.0540 180° South 196 226 2,600 -982 Descending FlightAware ADS-B
Sun 02:49:47 PM 33.0020 -97.0540 180° South 185 213 2,100 -873 Descending FlightAware ADS-B
Sun 02:50:07 PM 32.9860 -97.0540 180° South 174 200 1,800 -554 Descending FlightAware ADS-B
Sun 02:50:52 PM 32.9550 -97.0540 180° South 143 165 1,500 -400 Descending FlightAware ADS-B

Login

Don't have an account? Register now (free) for customized features, flight alerts, and more!